Time;durP1;ratioP1;P1;durP2;ratioP2;P2;SDS_P1;SDS_P2;PMS_P1;PMS_P2;Temp;Humidity;BMP_temperature;BMP_pressure;BME280_temperature;BME280_humidity;BME280_pressure;Samples;Min_cycle;Max_cycle;Signal;HPM_P1;HPM_P2
2022/04/25 00:02:15;;;;;;;6.45;2.20;;;9.30;99.90;;;;;;5116148;27;20009;-88
2022/04/25 00:04:40;;;;;;;;;;;9.20;99.90;;;;;;5115939;27;20050;-88
2022/04/25 00:07:06;;;;;;;8.98;4.55;;;9.10;99.90;;;;;;5115643;27;20371;-88
2022/04/25 00:09:31;;;;;;;;;;;9.10;99.90;;;;;;5116729;28;20023;-87
2022/04/25 00:11:57;;;;;;;10.10;3.53;;;9.00;99.90;;;;;;5115749;28;19903;-87
2022/04/25 00:14:22;;;;;;;;;;;9.00;99.90;;;;;;5116146;28;20062;-88
2022/04/25 00:16:54;;;;;;;6.72;3.08;;;9.00;99.90;;;;;;5115722;28;19915;-87
2022/04/25 00:19:20;;;;;;;6.43;2.50;;;9.00;99.90;;;;;;5115788;28;20015;-88
2022/04/25 00:21:46;;;;;;;;;;;9.00;99.90;;;;;;5116645;28;20495;-88
2022/04/25 00:24:11;;;;;;;8.80;3.85;;;9.00;99.90;;;;;;5115282;28;19908;-88
2022/04/25 00:26:56;;;;;;;;;;;9.00;99.90;;;;;;5113507;28;20020;-88
2022/04/25 00:29:21;;;;;;;12.90;3.85;;;9.00;99.90;;;;;;5115230;28;20359;-88
2022/04/25 00:31:47;;;;;;;;;;;9.00;99.90;;;;;;5116189;28;20020;-87
2022/04/25 00:34:12;;;;;;;5.10;2.60;;;9.00;99.90;;;;;;5115559;28;19965;-89
2022/04/25 00:36:38;;;;;;;;;;;9.00;99.90;;;;;;5116184;28;20487;-89
2022/04/25 00:39:04;;;;;;;14.43;4.60;;;9.00;99.90;;;;;;5115842;28;19907;-88
2022/04/25 00:41:30;;;;;;;;;;;8.90;99.90;;;;;;5115611;28;20031;-88
2022/04/25 00:43:56;;;;;;;11.48;3.60;;;8.80;99.90;;;;;;5115571;28;19998;-87
2022/04/25 00:46:24;;;;;;;9.93;2.80;;;8.80;99.90;;;;;;5133839;28;20080;-88
2022/04/25 00:48:50;;;;;;;9.52;3.45;;;8.80;99.90;;;;;;5133243;28;20022;-88
2022/04/25 00:51:16;;;;;;;;;;;8.80;99.90;;;;;;5116068;28;20027;-87
2022/04/25 00:53:44;;;;;;;11.32;5.57;;;8.80;99.90;;;;;;5134015;28;19903;-88
2022/04/25 00:56:10;;;;;;;7.80;2.83;;;8.80;99.90;;;;;;5133221;28;20042;-88
2022/04/25 00:58:36;;;;;;;12.30;2.83;;;8.90;99.90;;;;;;5115240;28;20030;-88
2022/04/25 01:01:02;;;;;;;;;;;8.90;99.90;;;;;;5115659;28;20023;-88
2022/04/25 01:03:28;;;;;;;8.43;2.55;;;8.90;99.90;;;;;;5115455;28;20384;-88
2022/04/25 01:05:54;;;;;;;;;;;8.90;99.90;;;;;;5115962;28;20094;-88
2022/04/25 01:08:19;;;;;;;12.80;3.28;;;8.80;99.90;;;;;;5115677;28;20426;-88
2022/04/25 01:10:45;;;;;;;;;;;8.80;99.90;;;;;;5115872;28;20421;-87
2022/04/25 01:13:14;;;;;;;8.73;3.58;;;8.80;99.90;;;;;;5115061;28;19910;-88
2022/04/25 01:15:40;;;;;;;8.88;4.38;;;8.80;99.90;;;;;;5114916;28;20015;-87
2022/04/25 01:18:06;;;;;;;;;;;8.80;99.90;;;;;;5119312;27;20033;-87
2022/04/25 01:20:32;;;;;;;11.18;5.18;;;8.70;99.90;;;;;;5119039;27;19969;-87
2022/04/25 01:27:15;;;;;;;;;;;8.60;99.90;;;;;;5121244;27;20023;-88
2022/04/25 01:28:35;;;;;;;10.35;4.57;;;8.60;99.90;;;;;;5137678;27;20030;-87
2022/04/25 01:31:01;;;;;;;;;;;8.50;99.90;;;;;;5119247;27;20027;-88
2022/04/25 01:33:27;;;;;;;14.93;6.00;;;8.50;99.90;;;;;;5119336;27;19910;-87
2022/04/25 01:35:52;;;;;;;;;;;8.50;99.90;;;;;;5120750;27;20019;-87
2022/04/25 01:38:18;;;;;;;13.45;4.43;;;8.50;99.90;;;;;;5119563;27;19909;-87
2022/04/25 01:40:43;;;;;;;;;;;8.60;99.90;;;;;;5119477;27;20031;-88
2022/04/25 01:43:09;;;;;;;14.88;3.85;;;8.70;99.90;;;;;;5118556;27;19957;-88
2022/04/25 01:45:34;;;;;;;;;;;8.70;99.90;;;;;;5137262;27;20060;-87
2022/04/25 01:48:00;;;;;;;9.18;3.15;;;8.70;99.90;;;;;;5118335;27;19904;-87
2022/04/25 01:50:25;;;;;;;;;;;8.70;99.90;;;;;;5118752;27;20380;-87
2022/04/25 01:52:51;;;;;;;5.55;2.20;;;8.70;99.90;;;;;;5137096;27;20369;-87
2022/04/25 01:55:17;;;;;;;;;;;8.70;99.90;;;;;;5118457;27;20535;-88
2022/04/25 01:57:43;;;;;;;11.90;2.97;;;8.70;99.90;;;;;;5117997;27;19919;-87
2022/04/25 02:00:08;;;;;;;;;;;8.70;99.90;;;;;;5121770;27;20050;-88
2022/04/25 02:02:35;;;;;;;7.75;2.60;;;8.70;99.90;;;;;;5136250;27;20375;-87
2022/04/25 02:05:02;;;;;;;5.65;2.63;;;8.70;99.90;;;;;;5118021;27;20057;-87
2022/04/25 02:07:27;;;;;;;6.15;2.50;;;8.70;99.90;;;;;;5117850;27;20104;-87
2022/04/25 02:09:53;;;;;;;;;;;8.60;99.90;;;;;;5118616;27;20050;-87
2022/04/25 02:12:20;;;;;;;12.38;2.65;;;8.50;99.90;;;;;;5118140;27;20002;-89
2022/04/25 02:14:46;;;;;;;9.68;3.08;;;8.50;99.90;;;;;;5117759;27;20023;-88
2022/04/25 02:17:13;;;;;;;;;;;8.40;99.90;;;;;;5118152;27;20392;-88
2022/04/25 02:19:40;;;;;;;5.82;2.85;;;8.40;99.90;;;;;;5117868;27;19914;-87
2022/04/25 02:22:07;;;;;;;6.07;2.63;;;8.40;99.90;;;;;;5135161;27;20115;-87
2022/04/25 02:24:33;;;;;;;6.15;2.67;;;8.40;99.90;;;;;;5117818;27;20023;-87
2022/04/25 02:26:58;;;;;;;;;;;8.50;99.90;;;;;;5118016;27;20487;-87
2022/04/25 02:29:25;;;;;;;9.00;2.83;;;8.50;99.90;;;;;;5117098;27;19907;-87
2022/04/25 02:31:51;;;;;;;7.35;3.53;;;8.50;99.90;;;;;;5118033;27;20023;-87
2022/04/25 02:34:16;;;;;;;;;;;8.50;99.90;;;;;;5135165;27;20038;-88
2022/04/25 02:36:42;;;;;;;12.57;4.85;;;8.50;99.90;;;;;;5116898;27;19911;-88
2022/04/25 02:39:08;;;;;;;;;;;8.60;99.90;;;;;;5117719;27;20023;-88
2022/04/25 02:41:34;;;;;;;6.68;3.58;;;8.60;99.90;;;;;;5117571;27;19956;-87
2022/04/25 02:43:59;;;;;;;;;;;8.70;99.90;;;;;;5118033;27;20019;-88
2022/04/25 02:46:25;;;;;;;8.82;4.40;;;8.80;99.90;;;;;;5117084;27;20424;-87
2022/04/25 02:48:51;;;;;;;;;;;8.90;99.90;;;;;;5117765;27;20449;-87
2022/04/25 02:51:17;;;;;;;7.75;3.97;;;9.00;99.90;;;;;;5117296;27;19907;-87
2022/04/25 02:53:43;;;;;;;10.48;3.20;;;9.10;99.90;;;;;;5117707;27;20030;-88
2022/04/25 02:56:09;;;;;;;8.45;3.28;;;9.30;99.90;;;;;;5100927;28;20101;-87
2022/04/25 02:58:38;;;;;;;7.95;3.03;;;9.30;99.90;;;;;;5090659;28;20040;-87
2022/04/25 03:01:05;;;;;;;11.15;3.65;;;9.30;99.90;;;;;;5091945;28;20024;-87
2022/04/25 03:03:34;;;;;;;7.40;3.00;;;9.40;99.90;;;;;;5093983;28;20031;-87
2022/04/25 03:06:01;;;;;;;10.88;4.10;;;9.30;99.90;;;;;;5094179;28;20480;-87
2022/04/25 03:08:28;;;;;;;7.93;4.60;;;9.20;99.90;;;;;;5093500;28;20036;-87
2022/04/25 03:10:54;;;;;;;10.75;4.32;;;9.20;99.90;;;;;;5093083;28;20020;-86
2022/04/25 03:13:20;;;;;;;;;;;9.20;99.90;;;;;;5093590;28;20044;-87
2022/04/25 03:15:47;;;;;;;12.70;3.90;;;9.20;99.90;;;;;;5092657;28;19905;-87
2022/04/25 03:18:15;;;;;;;12.73;3.95;;;9.10;99.90;;;;;;5092357;28;20028;-87
2022/04/25 03:20:46;;;;;;;14.82;6.10;;;9.20;99.90;;;;;;5092947;28;20020;-86
2022/04/25 03:23:14;;;;;;;17.55;5.68;;;9.20;99.90;;;;;;5092563;28;20028;-88
2022/04/25 03:25:39;;;;;;;9.57;4.43;;;9.30;99.90;;;;;;5092796;28;20028;-87
2022/04/25 03:28:05;;;;;;;;;;;9.30;99.90;;;;;;5093115;28;20431;-87
2022/04/25 03:30:31;;;;;;;9.25;4.65;;;9.40;99.90;;;;;;5092558;28;20442;-87
2022/04/25 03:32:56;;;;;;;;;;;9.50;99.90;;;;;;5092740;28;20120;-88
2022/04/25 03:35:23;;;;;;;12.68;2.92;;;9.70;99.90;;;;;;5092801;28;20026;-87
2022/04/25 03:37:50;;;;;;;5.95;2.90;;;9.70;99.90;;;;;;5093187;28;20078;-87
2022/04/25 03:40:17;;;;;;;8.15;2.70;;;9.70;99.90;;;;;;5092132;28;20027;-87
2022/04/25 03:42:46;;;;;;;12.65;3.70;;;9.60;99.90;;;;;;5092887;28;20039;-87
2022/04/25 03:45:16;;;;;;;8.20;4.22;;;9.60;99.90;;;;;;5093333;28;20016;-88
2022/04/25 03:47:43;;;;;;;7.28;2.90;;;9.60;99.90;;;;;;5093619;28;20020;-87
2022/04/25 03:50:10;;;;;;;15.80;4.60;;;9.50;99.90;;;;;;5092845;28;20016;-87
2022/04/25 03:52:37;;;;;;;14.55;4.80;;;9.50;99.90;;;;;;5092716;28;20115;-87
2022/04/25 03:57:52;;;;;;;9.77;4.07;;;9.50;99.90;;;;;;5134534;27;20153;-87
2022/04/25 04:00:19;;;;;;;12.23;5.32;;;9.50;99.90;;;;;;5115581;27;20023;-87
2022/04/25 04:02:45;;;;;;;9.27;4.68;;;9.50;99.90;;;;;;5116193;27;20110;-87
2022/04/25 04:05:11;;;;;;;;;;;9.60;99.90;;;;;;5116300;27;20062;-85
2022/04/25 04:07:37;;;;;;;5.93;2.80;;;9.60;99.90;;;;;;5116084;27;20324;-87
2022/04/25 04:10:03;;;;;;;;;;;9.60;99.90;;;;;;5116205;27;20126;-87
2022/04/25 04:12:34;;;;;;;4.90;2.08;;;9.70;99.90;;;;;;5115824;28;19964;-87
2022/04/25 04:15:05;;;;;;;9.18;2.00;;;9.80;99.90;;;;;;5115644;28;20075;-88
2022/04/25 04:17:31;;;;;;;7.25;2.03;;;9.90;99.90;;;;;;5116253;28;20064;-86
2022/04/25 04:19:57;;;;;;;10.45;2.25;;;10.00;99.90;;;;;;5115637;28;20106;-86
2022/04/25 04:22:23;;;;;;;;;;;10.00;99.90;;;;;;5115317;28;20169;-87
2022/04/25 04:24:49;;;;;;;6.70;2.25;;;10.10;99.90;;;;;;5115745;28;19911;-87
2022/04/25 04:27:15;;;;;;;4.88;2.15;;;10.10;99.90;;;;;;5116077;28;20030;-87
2022/04/25 04:29:41;;;;;;;8.65;2.95;;;10.20;99.90;;;;;;5116014;28;20099;-87
2022/04/25 04:32:08;;;;;;;9.55;2.35;;;10.30;99.90;;;;;;5115268;28;20059;-87
2022/04/25 04:34:35;;;;;;;6.47;1.70;;;10.40;99.90;;;;;;5115697;28;20019;-86
2022/04/25 04:37:03;;;;;;;8.27;1.83;;;10.40;99.90;;;;;;5116071;28;20035;-87
2022/04/25 04:39:31;;;;;;;6.53;2.17;;;10.60;99.90;;;;;;5116722;28;20449;-86
2022/04/25 04:41:57;;;;;;;5.50;1.75;;;10.70;99.90;;;;;;5115882;28;20027;-85
2022/04/25 04:44:22;;;;;;;;;;;10.80;99.90;;;;;;5134672;28;20083;-86
2022/04/25 04:46:48;;;;;;;8.77;2.53;;;10.80;99.90;;;;;;5115759;28;19907;-86
2022/04/25 04:49:14;;;;;;;;;;;11.00;99.90;;;;;;5116294;28;20062;-88
2022/04/25 04:51:40;;;;;;;6.45;1.40;;;11.10;99.90;;;;;;5117118;27;19904;-87
2022/04/25 04:54:05;;;;;;;;;;;11.20;99.90;;;;;;5121069;27;20023;-86
2022/04/25 04:56:32;;;;;;;4.70;0.85;;;11.30;99.90;;;;;;5118660;27;19941;-86
2022/04/25 04:58:58;;;;;;;6.20;1.52;;;11.50;99.90;;;;;;5119271;27;20140;-86
2022/04/25 05:01:25;;;;;;;4.78;1.33;;;11.60;99.90;;;;;;5118357;27;20019;-85
2022/04/25 05:03:51;;;;;;;3.38;1.10;;;11.80;99.90;;;;;;5118132;27;20048;-86
2022/04/25 05:06:16;;;;;;;;;;;11.90;99.90;;;;;;5118997;27;20023;-85
2022/04/25 05:08:42;;;;;;;3.38;0.90;;;11.90;99.90;;;;;;5119027;27;19914;-85
2022/04/25 05:11:11;;;;;;;;;;;11.90;99.90;;;;;;5119122;27;20612;-87
2022/04/25 05:13:37;;;;;;;2.17;1.02;;;12.00;99.90;;;;;;5118970;27;20667;-86
2022/04/25 05:16:04;;;;;;;15.82;4.40;;;12.00;99.90;;;;;;5118761;27;20033;-86
2022/04/25 05:18:32;;;;;;;118.25;62.97;;;12.00;99.90;;;;;;5118838;27;20503;-86
2022/04/25 05:21:01;;;;;;;214.68;128.82;;;12.00;99.90;;;;;;5118320;27;20062;-86
2022/04/25 05:23:27;;;;;;;134.40;79.85;;;11.90;99.90;;;;;;5118649;27;20034;-85
2022/04/25 05:25:54;;;;;;;31.35;17.13;;;11.90;99.90;;;;;;5118559;27;20019;-85
2022/04/25 05:28:22;;;;;;;20.45;10.75;;;12.00;99.90;;;;;;5118395;27;20122;-86
2022/04/25 05:30:49;;;;;;;12.48;5.93;;;11.90;99.90;;;;;;5115687;27;20110;-86
2022/04/25 05:33:18;;;;;;;8.02;2.20;;;11.90;99.90;;;;;;5116543;27;20023;-86
2022/04/25 05:35:45;;;;;;;5.57;1.20;;;11.90;99.90;;;;;;5118504;27;20061;-86
2022/04/25 05:38:12;;;;;;;6.90;0.70;;;11.90;99.90;;;;;;5118366;27;20023;-85
2022/04/25 05:40:39;;;;;;;4.03;0.85;;;11.80;99.90;;;;;;5118288;27;20491;-86
2022/04/25 05:43:06;;;;;;;2.20;0.60;;;11.70;99.90;;;;;;5117979;27;20023;-86
2022/04/25 05:45:32;;;;;;;4.47;0.70;;;11.70;99.90;;;;;;5117583;27;20038;-86
2022/04/25 05:47:58;;;;;;;3.83;0.68;;;11.60;99.90;;;;;;5117594;27;20068;-85
2022/04/25 05:53:09;;;;;;;4.43;1.00;;;11.60;99.90;;;;;;5136227;27;19914;-85
2022/04/25 05:55:36;;;;;;;;;;;11.60;99.90;;;;;;5117895;27;20031;-84
2022/04/25 05:58:03;;;;;;;6.95;1.67;;;11.60;99.90;;;;;;5135831;27;19956;-84
2022/04/25 06:00:30;;;;;;;5.25;1.83;;;11.70;99.90;;;;;;5135730;27;20467;-84
2022/04/25 06:02:56;;;;;;;8.35;3.72;;;11.70;99.90;;;;;;5116394;28;20842;-85
2022/04/25 06:05:22;;;;;;;9.60;4.85;;;11.70;99.90;;;;;;5117147;27;20019;-85
2022/04/25 06:07:48;;;;;;;;;;;11.70;99.90;;;;;;5135235;27;20034;-85
2022/04/25 06:10:16;;;;;;;9.63;2.95;;;11.80;99.90;;;;;;5117076;27;20275;-85
2022/04/25 06:12:44;;;;;;;4.13;2.10;;;11.90;99.90;;;;;;5135452;27;20094;-85
2022/04/25 06:15:10;;;;;;;8.55;1.63;;;12.10;99.90;;;;;;5117093;27;20076;-84
2022/04/25 06:17:36;;;;;;;4.15;0.98;;;12.50;99.90;;;;;;5117234;27;20118;-85
2022/04/25 06:20:04;;;;;;;4.45;0.85;;;12.80;99.90;;;;;;5117231;27;20395;-85
2022/04/25 06:22:30;;;;;;;4.20;1.40;;;13.00;99.90;;;;;;5116802;27;20037;-85
2022/04/25 06:24:55;;;;;;;;;;;13.20;99.90;;;;;;5117432;27;20019;-85
2022/04/25 06:27:21;;;;;;;4.93;1.38;;;13.30;99.90;;;;;;5117202;27;19904;-85
2022/04/25 06:29:46;;;;;;;;;;;13.30;99.90;;;;;;5117441;27;20475;-85
2022/04/25 06:32:13;;;;;;;5.72;0.60;;;13.30;99.90;;;;;;5117087;27;20363;-85
2022/04/25 06:34:42;;;;;;;5.32;0.57;;;13.30;99.90;;;;;;5116951;27;20084;-85
2022/04/25 06:37:08;;;;;;;2.60;0.50;;;13.40;99.90;;;;;;5134835;27;20076;-86
2022/04/25 06:39:34;;;;;;;3.45;0.80;;;13.50;99.90;;;;;;5116938;27;20034;-85
2022/04/25 06:41:59;;;;;;;;;;;13.60;99.90;;;;;;5117544;27;20031;-85
2022/04/25 06:44:25;;;;;;;2.13;0.50;;;13.80;99.90;;;;;;5116800;27;19903;-85
2022/04/25 06:46:51;;;;;;;;;;;13.90;99.90;;;;;;5119534;27;20035;-85
2022/04/25 06:49:19;;;;;;;3.17;0.70;;;14.00;99.90;;;;;;5116559;27;19903;-86
2022/04/25 06:51:45;;;;;;;1.65;0.45;;;14.20;99.90;;;;;;5135124;27;20042;-86
2022/04/25 06:54:11;;;;;;;;;;;14.40;99.90;;;;;;5117167;27;20015;-86
2022/04/25 06:56:37;;;;;;;1.60;0.47;;;14.60;99.90;;;;;;5116262;27;19915;-86
2022/04/25 06:59:03;;;;;;;2.80;0.68;;;14.80;99.90;;;;;;5117007;27;20030;-87
2022/04/25 07:01:28;;;;;;;;;;;15.00;99.90;;;;;;5116971;27;20019;-86
2022/04/25 07:03:54;;;;;;;2.17;0.50;;;15.10;99.90;;;;;;5116721;27;19907;-86
2022/04/25 07:06:19;;;;;;;;;;;15.20;99.90;;;;;;5116448;27;20425;-86
2022/04/25 07:08:45;;;;;;;4.68;0.65;;;15.20;99.90;;;;;;5116621;27;19907;-86
2022/04/25 07:11:11;;;;;;;2.65;0.40;;;15.20;99.90;;;;;;5116581;27;20390;-85
2022/04/25 07:13:36;;;;;;;6.32;0.65;;;15.40;99.90;;;;;;5116686;27;20054;-86
2022/04/25 07:16:02;;;;;;;2.65;0.52;;;15.40;99.90;;;;;;5114911;27;20497;-88
2022/04/25 07:18:29;;;;;;;6.72;0.60;;;15.30;99.90;;;;;;5116625;27;20031;-87
2022/04/25 07:20:55;;;;;;;5.72;0.60;;;15.20;99.90;;;;;;5116636;27;20045;-86
2022/04/25 07:28:49;;;;;;;2.83;0.52;;;15.20;99.90;;;;;;5134523;27;20038;-87
2022/04/25 07:31:16;;;;;;;5.50;0.50;;;15.20;99.90;;;;;;5115587;27;20027;-85
2022/04/25 07:33:43;;;;;;;2.83;0.70;;;15.50;99.90;;;;;;5115371;27;20027;-86
2022/04/25 07:36:10;;;;;;;5.53;0.90;;;15.70;99.90;;;;;;5116217;27;20019;-87
2022/04/25 07:38:36;;;;;;;1.00;0.50;;;15.90;99.90;;;;;;5115254;27;20035;-87
2022/04/25 07:41:02;;;;;;;2.72;0.60;;;15.90;99.90;;;;;;5115352;27;20051;-88
2022/04/25 07:43:30;;;;;;;1.27;0.50;;;15.90;99.90;;;;;;5116026;27;20035;-87
2022/04/25 07:45:56;;;;;;;9.50;1.15;;;16.00;99.90;;;;;;5115781;27;20023;-87
2022/04/25 07:48:22;;;;;;;6.03;0.50;;;15.90;99.90;;;;;;5133844;27;20064;-87
2022/04/25 07:50:48;;;;;;;3.30;0.70;;;15.80;99.90;;;;;;5116021;27;20019;-87
2022/04/25 07:53:14;;;;;;;4.07;0.85;;;15.80;99.90;;;;;;5116067;27;20027;-87
2022/04/25 07:55:39;;;;;;;2.90;0.65;;;15.80;99.90;;;;;;5115112;27;20039;-88
2022/04/25 07:58:08;;;;;;;7.15;0.75;;;15.90;99.90;;;;;;5115615;27;20034;-88
2022/04/25 08:00:35;;;;;;;3.13;0.70;;;15.90;99.90;;;;;;5116287;27;20013;-87
2022/04/25 08:03:01;;;;;;;3.45;0.68;;;16.10;99.90;;;;;;5115043;28;20026;-87
2022/04/25 08:05:27;;;;;;;2.38;0.50;;;16.40;99.90;;;;;;5112820;28;20023;-88
2022/04/25 08:07:53;;;;;;;2.78;0.70;;;17.50;99.90;;;;;;5114001;27;20053;-88
2022/04/25 08:10:19;;;;;;;4.43;0.60;;;19.00;99.90;;;;;;5116327;27;20023;-88
2022/04/25 08:18:13;;;;;;;4.88;0.77;;;23.40;66.70;;;;;;5113037;28;20491;-86
2022/04/25 08:20:40;;;;;;;2.88;1.20;;;24.40;57.90;;;;;;5094938;28;20388;-88
2022/04/25 08:23:11;;;;;;;1.50;0.63;;;24.90;50.40;;;;;;5095831;28;20492;-89
2022/04/25 08:25:38;;;;;;;2.10;0.80;;;25.00;49.40;;;;;;5095921;28;20555;-88
2022/04/25 08:28:07;;;;;;;2.28;0.70;;;25.20;47.60;;;;;;5099209;28;20029;-88
2022/04/25 08:30:33;;;;;;;2.95;0.80;;;25.90;45.50;;;;;;5098272;28;20499;-84
2022/04/25 08:33:00;;;;;;;3.10;0.75;;;26.30;44.50;;;;;;5096365;28;20062;-83
2022/04/25 08:35:27;;;;;;;3.03;0.80;;;26.60;41.30;;;;;;5096651;28;20566;-83
2022/04/25 08:37:54;;;;;;;6.05;0.82;;;26.20;42.10;;;;;;5097567;28;20690;-85
2022/04/25 08:40:20;;;;;;;2.10;0.70;;;26.30;43.10;;;;;;5132194;27;20027;-84
2022/04/25 08:42:46;;;;;;;2.75;0.73;;;26.00;42.10;;;;;;5136399;27;20054;-85
2022/04/25 08:45:13;;;;;;;4.35;0.80;;;25.70;41.30;;;;;;5119021;27;20030;-83
2022/04/25 08:47:53;;;;;;;4.47;1.55;;;25.40;43.30;;;;;;5119124;27;20544;-85
2022/04/25 08:50:20;;;;;;;6.90;1.05;;;25.80;43.50;;;;;;5118912;27;20023;-85
2022/04/25 08:52:46;;;;;;;3.83;0.90;;;26.10;40.20;;;;;;5118319;27;20088;-85
2022/04/25 08:55:13;;;;;;;2.47;0.60;;;26.30;39.20;;;;;;5117737;27;20478;-85
2022/04/25 08:57:40;;;;;;;4.57;1.15;;;26.20;39.50;;;;;;5117069;27;20084;-83
2022/04/25 09:00:07;;;;;;;4.38;0.60;;;26.20;39.30;;;;;;5115750;27;20023;-83
2022/04/25 09:02:34;;;;;;;1.35;0.68;;;26.00;39.60;;;;;;5133790;27;20038;-82
2022/04/25 09:05:01;;;;;;;1.60;0.50;;;26.00;38.80;;;;;;5133377;27;20015;-82
2022/04/25 09:07:27;;;;;;;1.30;0.60;;;25.80;39.50;;;;;;5136806;27;20046;-82
2022/04/25 09:09:54;;;;;;;2.22;0.50;;;25.40;38.80;;;;;;5118201;27;20042;-83
2022/04/25 09:12:20;;;;;;;1.83;0.32;;;24.80;40.20;;;;;;5118400;27;20034;-85
2022/04/25 09:14:46;;;;;;;1.35;0.45;;;24.20;39.40;;;;;;5136181;27;20069;-84
2022/04/25 09:17:12;;;;;;;1.70;0.50;;;24.20;39.70;;;;;;5117419;27;20059;-84
2022/04/25 09:19:39;;;;;;;0.90;0.40;;;24.50;40.60;;;;;;5117850;27;20034;-83
2022/04/25 09:22:06;;;;;;;1.85;0.50;;;24.30;40.10;;;;;;5135976;27;20112;-84
2022/04/25 09:24:34;;;;;;;2.22;0.38;;;23.50;40.60;;;;;;5118087;27;20023;-84
2022/04/25 09:27:23;;;;;;;1.83;0.50;;;22.80;43.20;;;;;;5118188;27;20027;-85
2022/04/25 09:29:49;;;;;;;1.42;0.70;;;22.70;45.70;;;;;;5117456;27;20031;-83
2022/04/25 09:32:17;;;;;;;7.13;0.60;;;23.50;44.30;;;;;;5118421;27;20027;-85
2022/04/25 09:35:02;;;;;;;2.58;0.75;;;24.20;41.60;;;;;;5117630;27;20619;-86
2022/04/25 09:37:54;;;;;;;0.77;0.40;;;24.80;40.30;;;;;;5135288;27;20031;-85
2022/04/25 09:40:22;;;;;;;0.93;0.40;;;25.10;39.50;;;;;;5093348;28;20265;-85
2022/04/25 09:43:05;;;;;;;6.90;0.60;;;25.40;38.20;;;;;;5115117;28;20084;-85
2022/04/25 09:45:32;;;;;;;2.88;0.50;;;25.00;39.60;;;;;;5096142;28;20070;-81
2022/04/25 09:47:58;;;;;;;2.25;0.60;;;24.30;40.20;;;;;;5110735;27;20158;-82
2022/04/25 09:50:27;;;;;;;0.93;0.55;;;23.70;41.80;;;;;;5132347;27;20635;-82
2022/04/25 09:52:58;;;;;;;2.00;0.80;;;23.50;42.10;;;;;;5115674;27;20023;-82
2022/04/25 09:55:26;;;;;;;3.97;0.50;;;24.00;42.40;;;;;;5103386;28;20055;-81
2022/04/25 09:57:52;;;;;;;1.70;0.47;;;24.80;41.80;;;;;;5112955;28;20438;-85
2022/04/25 10:00:33;;;;;;;3.92;0.63;;;25.50;40.10;;;;;;5094950;28;20020;-82
2022/04/25 10:03:00;;;;;;;2.42;0.70;;;26.00;39.10;;;;;;5112389;28;20020;-84
2022/04/25 10:05:39;;;;;;;1.58;0.70;;;25.80;37.60;;;;;;5095636;28;20019;-82
2022/04/25 10:08:07;;;;;;;2.22;0.90;;;25.00;37.80;;;;;;5096258;28;20391;-83
2022/04/25 10:10:34;;;;;;;4.45;0.70;;;24.50;39.20;;;;;;5095877;28;20034;-82
2022/04/25 10:13:01;;;;;;;3.45;0.75;;;24.20;40.50;;;;;;5096654;28;20039;-85
2022/04/25 10:15:26;;;;;;;3.60;0.85;;;24.00;41.10;;;;;;5114426;28;20024;-84
2022/04/25 10:17:54;;;;;;;1.45;0.63;;;23.80;41.00;;;;;;5095845;28;20423;-84
2022/04/25 10:20:20;;;;;;;3.67;0.60;;;23.60;41.40;;;;;;5096741;28;20035;-84
2022/04/25 10:22:46;;;;;;;5.00;1.23;;;23.20;41.20;;;;;;5096587;28;20548;-83
2022/04/25 10:25:12;;;;;;;4.95;0.90;;;22.90;43.80;;;;;;5113012;28;20027;-85
2022/04/25 10:27:42;;;;;;;2.70;0.93;;;22.60;46.30;;;;;;5096898;28;20038;-86
2022/04/25 10:30:15;;;;;;;2.45;0.80;;;22.40;48.00;;;;;;5114775;28;20073;-83
2022/04/25 10:32:41;;;;;;;3.17;1.10;;;22.20;47.30;;;;;;5114297;28;20062;-84
2022/04/25 10:35:13;;;;;;;3.20;0.88;;;22.10;49.40;;;;;;5113525;28;20099;-86
2022/04/25 10:37:42;;;;;;;3.70;0.90;;;21.90;47.40;;;;;;5096588;28;20039;-83
2022/04/25 10:40:09;;;;;;;2.88;1.08;;;21.60;49.50;;;;;;5096663;28;20028;-86
2022/04/25 10:46:01;;;;;;;3.38;1.02;;;21.10;51.00;;;;;;5083566;28;20055;-82
2022/04/25 10:48:27;;;;;;;3.60;0.77;;;20.90;54.10;;;;;;5093810;28;20301;-84
2022/04/25 10:51:18;;;;;;;4.70;1.48;;;20.80;53.10;;;;;;5092460;28;20039;-86
2022/04/25 10:54:05;;;;;;;3.67;0.70;;;20.50;52.60;;;;;;5093909;28;20073;-81
2022/04/25 10:56:31;;;;;;;;;;;20.20;53.30;;;;;;5092710;28;20672;-81
2022/04/25 10:59:23;;;;;;;2.60;0.80;;;20.00;54.50;;;;;;5100828;27;19937;-81
2022/04/25 11:01:49;;;;;;;2.50;0.70;;;20.10;56.20;;;;;;5114840;27;20046;-84
2022/04/25 11:04:16;;;;;;;4.00;0.70;;;20.10;56.00;;;;;;5114828;27;20022;-85
2022/04/25 11:06:42;;;;;;;2.22;0.80;;;20.20;56.20;;;;;;5134117;27;20041;-84
2022/04/25 11:09:07;;;;;;;1.35;0.50;;;20.40;55.80;;;;;;5116420;27;20382;-84
2022/04/25 11:11:47;;;;;;;1.27;0.50;;;20.40;54.60;;;;;;5115029;27;20476;-82
2022/04/25 11:14:14;;;;;;;4.47;0.40;;;20.50;53.30;;;;;;5115947;27;20031;-85
2022/04/25 11:16:40;;;;;;;2.30;0.60;;;20.70;56.40;;;;;;5115761;27;20495;-83
2022/04/25 11:19:15;;;;;;;4.50;0.50;;;20.70;55.00;;;;;;5116076;27;20119;-89
2022/04/25 11:21:47;;;;;;;2.13;0.50;;;20.80;53.00;;;;;;5116376;27;20027;-87
2022/04/25 11:24:35;;;;;;;1.20;0.50;;;20.50;53.50;;;;;;5116245;27;20031;-87
2022/04/25 11:27:11;;;;;;;1.00;0.40;;;20.60;53.90;;;;;;5097294;28;20026;-87
2022/04/25 11:29:43;;;;;;;;;;;20.60;53.80;;;;;;5096422;28;20537;-87
2022/04/25 11:32:35;;;;;;;4.50;0.60;;;20.50;53.30;;;;;;5096401;28;19903;-87
2022/04/25 11:35:03;;;;;;;3.88;0.50;;;20.30;53.40;;;;;;5087807;27;20039;-86
2022/04/25 11:37:31;;;;;;;1.92;0.77;;;20.10;56.30;;;;;;5110985;27;20086;-88
2022/04/25 11:40:07;;;;;;;1.88;0.60;;;20.10;55.30;;;;;;5106690;27;20030;-85
2022/04/25 11:42:35;;;;;;;1.60;0.60;;;20.00;53.70;;;;;;5107714;27;20069;-86
2022/04/25 11:45:02;;;;;;;1.25;0.50;;;19.90;54.50;;;;;;5097089;27;20202;-87
2022/04/25 11:47:31;;;;;;;1.55;0.45;;;19.90;52.80;;;;;;5099788;27;20046;-87
2022/04/25 11:49:59;;;;;;;1.88;0.50;;;20.00;55.30;;;;;;5113204;27;20032;-88
2022/04/25 11:52:26;;;;;;;1.90;0.60;;;20.00;53.60;;;;;;5107016;27;20069;-86
2022/04/25 11:54:52;;;;;;;1.45;0.40;;;19.90;54.00;;;;;;5110475;27;20176;-86
2022/04/25 11:57:18;;;;;;;1.88;0.52;;;19.80;57.30;;;;;;5100995;27;20439;-87
2022/04/25 11:59:44;;;;;;;3.83;0.70;;;19.70;58.20;;;;;;5104995;27;20092;-87
2022/04/25 12:02:10;;;;;;;2.05;0.65;;;19.60;58.70;;;;;;5112072;27;20036;-86
2022/04/25 12:04:36;;;;;;;1.92;0.52;;;19.60;56.70;;;;;;5108686;27;20036;-87
2022/04/25 12:07:07;;;;;;;1.25;0.50;;;19.50;57.10;;;;;;5109521;27;20056;-87
2022/04/25 12:15:35;;;;;;;1.10;0.52;;;20.30;58.70;;;;;;5079217;28;20062;-85
2022/04/25 12:18:22;;;;;;;0.70;0.38;;;20.30;55.40;;;;;;5098168;28;20513;-86
2022/04/25 12:20:49;;;;;;;2.88;0.30;;;20.40;55.20;;;;;;5093509;28;20031;-87
2022/04/25 12:23:21;;;;;;;1.48;0.50;;;20.40;57.50;;;;;;5093086;28;20036;-86
2022/04/25 12:25:47;;;;;;;1.00;0.30;;;20.30;55.60;;;;;;5085965;28;20058;-88
2022/04/25 12:28:17;;;;;;;0.80;0.40;;;20.10;57.00;;;;;;5098188;28;20032;-87
2022/04/25 12:30:48;;;;;;;0.82;0.30;;;19.90;55.50;;;;;;5090364;28;20504;-87
2022/04/25 12:33:14;;;;;;;2.85;0.38;;;19.80;56.50;;;;;;5077388;28;20123;-87
2022/04/25 12:35:42;;;;;;;1.38;0.38;;;19.80;58.20;;;;;;5087976;28;20046;-86
2022/04/25 12:38:09;;;;;;;4.03;0.57;;;19.80;60.10;;;;;;5078338;28;20047;-86
2022/04/25 12:40:57;;;;;;;1.80;0.40;;;19.90;58.30;;;;;;5102583;28;20496;-86
2022/04/25 12:43:42;;;;;;;3.30;0.20;;;19.90;57.70;;;;;;5102397;27;20544;-85
2022/04/25 12:46:08;;;;;;;1.05;0.20;;;19.80;54.10;;;;;;5084710;28;20033;-86
2022/04/25 12:48:56;;;;;;;0.80;0.20;;;19.70;53.00;;;;;;5078617;28;20085;-87
2022/04/25 12:51:33;;;;;;;0.40;0.20;;;19.50;53.90;;;;;;5092226;28;20031;-87
2022/04/25 12:54:00;;;;;;;6.47;0.70;;;19.10;56.80;;;;;;5115509;28;20024;-86
2022/04/25 12:56:27;;;;;;;0.20;0.10;;;19.00;57.50;;;;;;5115232;28;20131;-88
2022/04/25 12:58:54;;;;;;;4.35;0.20;;;18.90;56.30;;;;;;5115583;28;20024;-86
2022/04/25 13:01:36;;;;;;;0.47;0.20;;;18.90;57.90;;;;;;5114854;28;20159;-87
2022/04/25 13:04:06;;;;;;;0.70;0.20;;;19.10;58.70;;;;;;5115376;28;20019;-87
2022/04/25 13:06:32;;;;;;;1.85;1.42;;;19.10;59.00;;;;;;5115448;28;20402;-88
2022/04/25 13:08:57;;;;;;;4.32;0.25;;;19.00;59.50;;;;;;5114411;28;20016;-87
2022/04/25 13:11:23;;;;;;;1.77;0.68;;;19.10;61.00;;;;;;5104190;28;20040;-86
2022/04/25 13:13:50;;;;;;;3.42;0.35;;;19.10;63.50;;;;;;5107736;27;20035;-85
2022/04/25 13:16:17;;;;;;;6.22;0.20;;;19.10;67.40;;;;;;5112516;27;20036;-87
2022/04/25 13:18:43;;;;;;;2.85;0.20;;;19.50;63.80;;;;;;5109194;27;20031;-87
2022/04/25 13:21:10;;;;;;;0.75;0.20;;;19.60;56.70;;;;;;5102129;27;20063;-85
2022/04/25 13:23:36;;;;;;;1.80;0.25;;;19.50;54.70;;;;;;5111640;27;20058;-85
2022/04/25 13:26:02;;;;;;;0.30;0.20;;;19.30;55.70;;;;;;5107605;27;20067;-85
2022/04/25 13:28:29;;;;;;;0.13;0.10;;;19.30;57.50;;;;;;5115649;27;20038;-86
2022/04/25 13:30:55;;;;;;;0.20;0.10;;;19.30;58.80;;;;;;5115336;27;20519;-85
2022/04/25 13:33:20;;;;;;;1.85;0.30;;;19.30;56.80;;;;;;5110014;27;20079;-84
2022/04/25 13:35:46;;;;;;;0.20;0.20;;;19.20;56.40;;;;;;5115387;27;20039;-85